Time;durP1;ratioP1;P1;durP2;ratioP2;P2;SDS_P1;SDS_P2;PMS_P1;PMS_P2;Temp;Humidity;BMP_temperature;BMP_pressure;BME280_temperature;BME280_humidity;BME280_pressure;Samples;Min_cycle;Max_cycle;Signal;HPM_P1;HPM_P2
2021/07/05 07:06:40;;;;;;;4.95;3.38;;;;;;;24.73;55.67;99587.81;5068698;27;20400;-81
2021/07/05 07:09:07;;;;;;;4.15;3.70;;;;;;;24.77;55.06;99597.13;5056856;28;20112;-76
2021/07/05 07:11:35;;;;;;;6.85;3.88;;;;;;;24.83;53.77;99597.19;5044637;28;20037;-79
2021/07/05 07:14:05;;;;;;;9.60;3.55;;;;;;;24.97;52.34;99592.84;5047065;28;20128;-78
2021/07/05 07:16:38;;;;;;;5.40;3.50;;;;;;;25.11;54.07;99596.56;5047158;28;20168;-81
2021/07/05 07:19:16;;;;;;;13.75;3.47;;;;;;;25.14;51.36;99598.00;5045385;28;20471;-76
2021/07/05 07:21:49;;;;;;;3.05;2.85;;;;;;;24.93;49.87;99593.41;5040738;28;20041;-77
2021/07/05 07:24:17;;;;;;;3.42;3.15;;;;;;;24.75;50.58;99596.44;5045167;28;20126;-77
2021/07/05 07:26:45;;;;;;;7.30;4.00;;;;;;;24.96;52.18;99585.88;5044315;28;20694;-79
2021/07/05 07:29:12;;;;;;;5.68;2.70;;;;;;;24.63;50.95;99581.94;5045585;28;20466;-79
2021/07/05 07:31:40;;;;;;;3.55;3.17;;;;;;;24.83;50.37;99585.72;5046218;28;20049;-79
2021/07/05 07:34:08;;;;;;;3.42;2.70;;;;;;;24.81;51.35;99587.72;5048449;28;20048;-78
2021/07/05 07:36:35;;;;;;;12.75;4.07;;;;;;;24.86;50.08;99595.97;5031410;28;20069;-74
2021/07/05 07:39:08;;;;;;;3.65;3.10;;;;;;;25.03;51.52;99585.94;5048885;28;20049;-77
2021/07/05 07:41:35;;;;;;;5.10;2.75;;;;;;;25.03;50.90;99585.94;5048435;28;20037;-75
2021/07/05 07:44:04;;;;;;;3.58;3.28;;;;;;;24.88;52.04;99583.31;5048640;28;20553;-75
2021/07/05 07:46:31;;;;;;;4.55;3.17;;;;;;;25.10;50.90;99586.09;5048421;28;20438;-74
2021/07/05 07:48:58;;;;;;;5.55;3.17;;;;;;;25.01;51.50;99575.47;5049147;28;20407;-74
2021/07/05 07:51:25;;;;;;;5.50;3.75;;;;;;;25.13;51.36;99572.34;5048349;28;20041;-75
2021/07/05 07:53:53;;;;;;;6.88;3.38;;;;;;;24.96;51.28;99577.88;5048014;28;20404;-75
2021/07/05 07:56:20;;;;;;;5.70;2.95;;;;;;;25.00;50.89;99583.66;5048723;28;20049;-75
2021/07/05 07:58:47;;;;;;;4.20;3.05;;;;;;;25.13;50.94;99575.03;5047795;28;20037;-75
2021/07/05 08:01:14;;;;;;;3.47;3.17;;;;;;;25.24;50.91;99569.19;5048102;28;20041;-75
2021/07/05 08:03:41;;;;;;;3.78;2.80;;;;;;;25.32;50.56;99574.44;5047707;28;20065;-76
2021/07/05 08:06:08;;;;;;;6.13;3.08;;;;;;;25.30;51.02;99577.31;5048580;28;20091;-75
2021/07/05 08:08:35;;;;;;;3.85;3.50;;;;;;;25.28;51.35;99581.97;5048064;28;20494;-75
2021/07/05 08:11:02;;;;;;;5.80;4.35;;;;;;;25.14;51.75;99584.66;5047944;28;20053;-75
2021/07/05 08:13:29;;;;;;;4.93;4.43;;;;;;;24.93;52.74;99586.25;5048178;28;20111;-75
2021/07/05 08:15:56;;;;;;;3.80;3.38;;;;;;;25.18;52.69;99580.63;5046360;28;20054;-75
2021/07/05 08:18:23;;;;;;;4.28;3.92;;;;;;;25.17;52.57;99570.97;5034467;28;20042;-75
2021/07/05 08:20:50;;;;;;;5.22;3.75;;;;;;;24.96;53.43;99575.19;5034617;28;20513;-75
2021/07/05 08:23:17;;;;;;;4.30;3.97;;;;;;;25.07;53.04;99582.75;5033303;28;20042;-76
2021/07/05 08:25:44;;;;;;;4.50;4.07;;;;;;;24.94;53.79;99582.56;5033476;28;20136;-75
2021/07/05 08:28:12;;;;;;;5.03;4.53;;;;;;;24.99;54.51;99590.03;5034461;28;20043;-75
2021/07/05 08:30:39;;;;;;;5.15;4.47;;;;;;;24.76;54.41;99590.09;5035103;28;20435;-75
2021/07/05 08:33:06;;;;;;;6.45;4.07;;;;;;;24.83;54.57;99599.03;5030836;28;20068;-77
2021/07/05 08:35:34;;;;;;;5.45;4.32;;;;;;;24.83;52.98;99596.38;5031701;28;20446;-75
2021/07/05 08:38:01;;;;;;;6.20;3.72;;;;;;;24.92;52.77;99600.56;5034283;28;20071;-76
2021/07/05 08:40:28;;;;;;;5.43;3.88;;;;;;;24.92;53.17;99603.25;5034513;28;20050;-75
2021/07/05 08:42:56;;;;;;;4.53;3.83;;;;;;;24.94;53.17;99608.41;5034218;28;20137;-75
2021/07/05 08:45:24;;;;;;;4.70;4.20;;;;;;;24.93;53.09;99606.72;5034043;28;20050;-75
2021/07/05 08:47:52;;;;;;;4.97;4.07;;;;;;;25.14;52.86;99593.53;5034225;28;20044;-75
2021/07/05 08:50:21;;;;;;;4.82;4.25;;;;;;;24.95;53.19;99600.22;5034368;28;20513;-74
2021/07/05 08:52:48;;;;;;;5.10;3.55;;;;;;;25.13;52.43;99607.03;5033642;28;20120;-75
2021/07/05 08:55:20;;;;;;;5.90;3.53;;;;;;;25.25;51.85;99610.88;5032847;28;20065;-74
2021/07/05 08:57:48;;;;;;;5.80;3.90;;;;;;;25.08;52.38;99613.72;5034661;28;20446;-75
2021/07/05 09:00:21;;;;;;;3.83;3.40;;;;;;;25.16;52.38;99609.34;5033762;28;20033;-75
2021/07/05 09:02:49;;;;;;;5.55;3.70;;;;;;;25.30;52.05;99611.13;5034376;28;20084;-75
2021/07/05 09:05:17;;;;;;;5.85;3.83;;;;;;;25.53;51.64;99609.16;5033472;28;20060;-76
2021/07/05 09:07:56;;;;;;;5.35;3.72;;;;;;;25.52;51.58;99604.00;5033661;28;20064;-75
2021/07/05 09:10:25;;;;;;;4.32;3.92;;;;;;;25.59;51.19;99600.38;5033322;28;20522;-75
2021/07/05 09:13:06;;;;;;;3.83;3.53;;;;;;;25.53;51.28;99603.81;5034137;28;20045;-75
2021/07/05 09:15:41;;;;;;;4.78;4.28;;;;;;;25.53;52.16;99613.66;5032797;28;20041;-76
2021/07/05 09:18:38;;;;;;;5.55;4.10;;;;;;;25.48;52.72;99610.72;5032814;28;20049;-79
2021/07/05 09:21:18;;;;;;;8.07;4.90;;;;;;;25.41;52.16;99613.34;5031563;28;20056;-78
2021/07/05 09:23:55;;;;;;;4.40;3.83;;;;;;;25.20;52.88;99614.13;5031445;28;20038;-78
2021/07/05 09:26:27;;;;;;;8.27;4.40;;;;;;;25.33;51.91;99619.59;5029443;28;20049;-80
2021/07/05 09:28:57;;;;;;;14.73;4.68;;;;;;;25.54;52.05;99626.00;5032849;28;20483;-77
2021/07/05 09:31:30;;;;;;;7.68;4.70;;;;;;;25.57;51.62;99633.63;5032118;28;20033;-80
2021/07/05 09:33:57;;;;;;;7.15;4.50;;;;;;;25.55;51.70;99623.13;5028634;28;20459;-76
2021/07/05 09:36:25;;;;;;;9.00;4.00;;;;;;;25.68;51.60;99632.31;5032980;28;20468;-75
2021/07/05 09:38:52;;;;;;;11.18;5.35;;;;;;;25.88;51.14;99620.00;5031578;28;20144;-77
2021/07/05 09:41:24;;;;;;;7.78;4.53;;;;;;;25.80;51.44;99630.81;5032843;28;20056;-76
2021/07/05 09:43:55;;;;;;;5.50;5.00;;;;;;;25.69;51.80;99636.63;5032019;28;20073;-76
2021/07/05 09:46:43;;;;;;;4.80;3.65;;;;;;;25.70;51.05;99630.25;5030163;28;20052;-76
2021/07/05 09:49:15;;;;;;;4.50;4.07;;;;;;;25.77;51.63;99632.00;5025276;28;20045;-75
2021/07/05 09:51:45;;;;;;;6.35;5.75;;;;;;;25.65;53.19;99638.84;5029134;28;20123;-77
2021/07/05 09:54:17;;;;;;;7.85;5.55;;;;;;;25.81;53.59;99637.81;5030486;28;20462;-77
2021/07/05 09:56:45;;;;;;;7.03;4.57;;;;;;;25.79;52.33;99623.84;5025549;28;20380;-75
2021/07/05 09:59:20;;;;;;;6.95;5.05;;;;;;;25.91;52.37;99630.31;5031205;28;20089;-76
2021/07/05 10:01:50;;;;;;;9.57;5.38;;;;;;;25.90;52.35;99631.34;5031106;28;20133;-77
2021/07/05 10:04:32;;;;;;;6.00;5.43;;;;;;;25.95;53.12;99631.59;5031835;28;20045;-76
2021/07/05 10:07:01;;;;;;;10.50;5.85;;;;;;;25.97;53.25;99634.06;5031993;28;20525;-75
2021/07/05 10:09:39;;;;;;;9.48;7.82;;;;;;;25.55;53.81;99639.13;5025627;28;20399;-75
2021/07/05 10:12:19;;;;;;;9.05;5.50;;;;;;;25.72;54.02;99626.38;5027670;28;20040;-74
2021/07/05 10:15:08;;;;;;;6.65;6.05;;;;;;;25.70;53.73;99635.59;5020484;28;20072;-76
2021/07/05 10:17:45;;;;;;;7.35;6.65;;;;;;;25.55;53.88;99639.13;5030016;28;20042;-76
2021/07/05 10:20:18;;;;;;;6.43;5.60;;;;;;;25.82;52.55;99637.59;5030737;28;20120;-75
2021/07/05 10:22:48;;;;;;;7.10;5.68;;;;;;;25.93;52.18;99635.44;5028587;28;20046;-76
2021/07/05 10:25:17;;;;;;;10.50;5.70;;;;;;;25.99;52.41;99629.34;5030650;28;20092;-76
2021/07/05 10:27:45;;;;;;;6.90;6.28;;;;;;;25.81;52.84;99632.47;5031932;28;20037;-76
2021/07/05 10:30:15;;;;;;;6.90;6.20;;;;;;;25.88;52.68;99628.00;5031423;28;20391;-77
2021/07/05 10:32:42;;;;;;;7.50;5.10;;;;;;;26.07;52.45;99627.38;5031090;28;20048;-77
2021/07/05 10:35:12;;;;;;;7.93;6.35;;;;;;;26.00;53.86;99631.84;5031405;28;20092;-77
2021/07/05 10:38:01;;;;;;;9.60;7.30;;;;;;;25.95;53.12;99623.56;5031810;28;20038;-77
2021/07/05 10:40:50;;;;;;;6.78;6.03;;;;;;;26.04;53.06;99632.25;5029646;28;20053;-76
2021/07/05 10:43:19;;;;;;;6.20;5.57;;;;;;;26.11;53.02;99633.16;5045774;28;20044;-76
2021/07/05 10:45:52;;;;;;;8.30;6.57;;;;;;;26.07;52.70;99634.56;5027808;28;20344;-77
2021/07/05 10:48:31;;;;;;;8.13;6.55;;;;;;;25.83;52.55;99633.09;5031638;28;20088;-76
2021/07/05 10:50:59;;;;;;;7.47;6.25;;;;;;;26.12;52.24;99640.97;5030609;28;20038;-76
2021/07/05 10:53:32;;;;;;;5.82;5.30;;;;;;;26.01;51.96;99644.16;5030402;28;20125;-74
2021/07/05 10:56:01;;;;;;;10.40;6.05;;;;;;;25.99;51.88;99640.03;5031352;28;20061;-75
2021/07/05 10:58:32;;;;;;;5.65;5.05;;;;;;;26.14;51.79;99638.09;5028514;28;20052;-76
2021/07/05 11:01:02;;;;;;;10.27;6.00;;;;;;;25.98;51.78;99639.19;5030508;28;20045;-77
2021/07/05 11:03:38;;;;;;;5.70;5.20;;;;;;;26.26;51.33;99641.94;5029425;28;20407;-79
2021/07/05 11:06:28;;;;;;;6.88;6.28;;;;;;;26.22;51.33;99631.81;5030794;28;20432;-78
2021/07/05 11:08:56;;;;;;;11.02;7.38;;;;;;;26.57;50.96;99630.88;5031363;28;20125;-77
2021/07/05 11:11:28;;;;;;;9.05;6.97;;;;;;;26.15;51.57;99638.94;5031419;28;20045;-80
2021/07/05 11:14:14;;;;;;;7.85;6.82;;;;;;;26.25;51.78;99634.91;5030996;28;20083;-83
2021/07/05 11:16:59;;;;;;;9.82;7.80;;;;;;;26.04;51.83;99635.75;5031311;28;20104;-79
2021/07/05 11:19:44;;;;;;;8.07;6.35;;;;;;;26.12;52.11;99635.63;5031462;28;20115;-80
2021/07/05 11:22:27;;;;;;;8.57;6.95;;;;;;;26.33;51.78;99625.94;5011745;28;20125;-76
2021/07/05 11:25:04;;;;;;;8.70;7.90;;;;;;;26.38;50.86;99631.53;5025186;28;20443;-77
2021/07/05 11:27:47;;;;;;;7.88;6.50;;;;;;;26.31;51.10;99626.16;5031228;28;20081;-76
2021/07/05 11:30:16;;;;;;;8.43;7.00;;;;;;;26.40;51.00;99626.81;5030761;28;20136;-78
2021/07/05 11:32:47;;;;;;;7.85;5.85;;;;;;;26.41;51.42;99624.97;5030214;28;20483;-79
2021/07/05 11:35:33;;;;;;;7.47;6.82;;;;;;;26.40;50.82;99626.81;5029781;28;20144;-75
2021/07/05 11:38:04;;;;;;;7.40;6.60;;;;;;;26.48;51.06;99625.91;5027076;28;20038;-76
2021/07/05 11:40:39;;;;;;;7.75;6.88;;;;;;;26.42;50.98;99629.31;5029816;28;20108;-76
2021/07/05 11:43:09;;;;;;;7.53;6.80;;;;;;;26.51;50.60;99623.63;5028719;28;20559;-76
2021/07/05 11:45:53;;;;;;;7.63;6.80;;;;;;;26.46;50.44;99622.56;5029359;28;20034;-77
2021/07/05 11:48:39;;;;;;;6.75;5.28;;;;;;;26.66;50.82;99620.88;5030738;28;20095;-77
2021/07/05 11:51:18;;;;;;;12.90;5.70;;;;;;;26.68;51.01;99613.47;5030565;28;20483;-78
2021/07/05 11:53:55;;;;;;;7.57;6.10;;;;;;;26.81;50.62;99612.75;5035274;28;20071;-76
2021/07/05 11:56:47;;;;;;;6.43;5.78;;;;;;;26.67;50.61;99611.81;5032959;28;20087;-75
2021/07/05 11:59:23;;;;;;;11.23;5.05;;;;;;;26.64;50.88;99613.06;5029401;28;20034;-74
2021/07/05 12:02:05;;;;;;;9.45;4.70;;;;;;;26.70;50.25;99614.13;5033421;28;20041;-76
2021/07/05 12:04:40;;;;;;;7.10;4.93;;;;;;;26.69;50.04;99622.34;5031932;28;20054;-77
2021/07/05 12:07:21;;;;;;;5.90;4.95;;;;;;;26.76;49.27;99621.34;5032619;28;20041;-76
2021/07/05 12:09:52;;;;;;;5.65;5.25;;;;;;;26.69;49.06;99620.50;5032567;28;20029;-74
2021/07/05 12:12:22;;;;;;;8.02;7.25;;;;;;;26.66;48.90;99620.03;5033124;28;20069;-76
2021/07/05 12:14:52;;;;;;;5.88;5.25;;;;;;;26.76;48.91;99620.53;5033938;28;20052;-78
2021/07/05 12:17:20;;;;;;;8.32;6.70;;;;;;;26.89;48.48;99616.06;5034124;28;20139;-80
2021/07/05 12:19:51;;;;;;;8.25;6.35;;;;;;;26.88;47.65;99616.25;5034865;28;20038;-76
2021/07/05 12:22:24;;;;;;;6.05;5.45;;;;;;;26.78;48.10;99615.78;5031802;28;20045;-79
2021/07/05 12:25:01;;;;;;;5.60;5.10;;;;;;;26.70;49.04;99621.31;5032310;28;20037;-76
2021/07/05 12:27:31;;;;;;;6.82;4.90;;;;;;;27.02;48.29;99615.31;5033480;28;20053;-78
2021/07/05 12:30:04;;;;;;;7.90;6.28;;;;;;;27.28;47.30;99616.50;5033014;28;20478;-77
2021/07/05 12:32:34;;;;;;;7.28;4.78;;;;;;;27.26;47.45;99619.34;5033681;28;20175;-78
2021/07/05 12:35:12;;;;;;;7.85;6.25;;;;;;;27.24;47.45;99617.91;5030829;28;20117;-79
2021/07/05 12:37:59;;;;;;;6.90;6.05;;;;;;;27.12;47.63;99613.13;5033940;28;20911;-77
2021/07/05 12:40:29;;;;;;;8.35;5.25;;;;;;;27.29;47.04;99610.13;5033534;28;20091;-77
2021/07/05 12:42:59;;;;;;;5.57;4.95;;;;;;;27.24;47.50;99612.56;5034214;28;20124;-79
2021/07/05 12:45:33;;;;;;;4.43;4.03;;;;;;;27.36;46.49;99616.31;5033654;28;20136;-78
2021/07/05 12:48:08;;;;;;;5.57;5.07;;;;;;;27.17;46.89;99622.41;5034153;28;20071;-78
2021/07/05 12:50:54;;;;;;;5.88;5.38;;;;;;;27.06;46.35;99616.59;5032983;28;20048;-78
2021/07/05 12:53:28;;;;;;;4.60;4.20;;;;;;;27.37;46.33;99617.94;5033925;28;20076;-79
2021/07/05 12:55:59;;;;;;;5.35;4.85;;;;;;;27.18;45.74;99614.19;5033779;28;20117;-78
2021/07/05 12:58:50;;;;;;;7.03;5.13;;;;;;;27.38;45.43;99617.78;5034474;28;20045;-78
2021/07/05 13:01:27;;;;;;;6.50;4.63;;;;;;;27.37;45.84;99618.78;5033496;28;20187;-77
2021/07/05 13:04:04;;;;;;;6.78;4.30;;;;;;;27.44;45.64;99613.47;5033285;28;20075;-79
2021/07/05 13:06:36;;;;;;;5.75;4.32;;;;;;;27.11;46.57;99613.31;5033272;28;20062;-78
2021/07/05 13:09:06;;;;;;;8.50;5.35;;;;;;;27.15;46.47;99618.06;5033781;28;20498;-79
2021/07/05 13:11:43;;;;;;;5.30;4.70;;;;;;;27.34;46.67;99618.38;5034070;28;20053;-79
2021/07/05 13:14:16;;;;;;;5.45;5.05;;;;;;;26.72;47.41;99613.91;5032634;28;20041;-76
2021/07/05 13:16:43;;;;;;;6.43;4.80;;;;;;;27.02;47.01;99611.81;5033938;28;20515;-76
2021/07/05 13:19:19;;;;;;;7.13;4.93;;;;;;;26.71;47.33;99620.28;5032902;28;20041;-76
2021/07/05 13:21:51;;;;;;;4.45;4.03;;;;;;;26.93;47.52;99621.84;5033290;28;20038;-77
2021/07/05 13:24:19;;;;;;;5.80;4.80;;;;;;;26.85;47.54;99619.34;5031715;28;20042;-78
2021/07/05 13:26:49;;;;;;;5.32;4.75;;;;;;;27.31;46.63;99621.44;5034438;28;20121;-76
2021/07/05 13:29:19;;;;;;;5.55;5.05;;;;;;;27.06;47.15;99619.25;5033136;28;20189;-79
2021/07/05 13:31:47;;;;;;;5.70;4.88;;;;;;;27.34;46.01;99613.00;5033773;28;20084;-77
2021/07/05 13:34:37;;;;;;;5.38;4.88;;;;;;;27.33;45.45;99617.53;5032386;28;20095;-78
2021/07/05 13:37:11;;;;;;;5.15;4.65;;;;;;;27.42;45.09;99612.81;5033767;28;20399;-79
2021/07/05 13:39:39;;;;;;;;;;;;;;;27.30;45.47;99615.25;5031181;28;20553;-77
2021/07/05 13:42:15;;;;;;;4.07;3.60;;;;;;;27.30;45.76;99609.91;5030985;28;19971;-78
2021/07/05 13:44:44;;;;;;;6.65;4.88;;;;;;;27.66;44.69;99612.28;5030898;28;20526;-78
2021/07/05 13:47:12;;;;;;;5.03;4.13;;;;;;;27.38;45.43;99604.38;5031704;28;20044;-76
2021/07/05 13:49:43;;;;;;;5.22;4.72;;;;;;;27.68;44.08;99609.38;5031366;28;20883;-79
2021/07/05 13:52:30;;;;;;;7.82;4.35;;;;;;;27.32;44.90;99609.69;5030880;28;20049;-79
2021/07/05 13:54:57;;;;;;;4.38;3.97;;;;;;;27.62;44.31;99608.34;5032876;28;20496;-77
2021/07/05 13:57:24;;;;;;;9.45;4.13;;;;;;;27.71;43.70;99602.84;5032648;28;20388;-79
2021/07/05 13:59:51;;;;;;;4.40;4.00;;;;;;;27.98;43.24;99609.88;5033416;28;20102;-80
2021/07/05 14:02:18;;;;;;;8.38;5.32;;;;;;;27.65;43.24;99602.59;5033239;28;20049;-80
2021/07/05 14:04:48;;;;;;;4.75;4.35;;;;;;;27.94;42.03;99609.47;5031967;28;20530;-79
2021/07/05 14:07:15;;;;;;;3.88;3.53;;;;;;;27.97;42.26;99607.41;5032098;28;20069;-79
2021/07/05 14:09:42;;;;;;;10.77;3.60;;;;;;;27.80;43.12;99593.56;5032971;28;20046;-78
2021/07/05 14:12:09;;;;;;;3.92;3.63;;;;;;;27.90;43.07;99596.69;5031377;28;20091;-79
2021/07/05 14:14:35;;;;;;;3.88;3.42;;;;;;;28.22;41.42;99599.56;5031823;28;20492;-77
2021/07/05 14:17:03;;;;;;;5.97;4.60;;;;;;;27.86;42.32;99598.13;5032560;28;20484;-78
2021/07/05 14:19:30;;;;;;;4.97;4.10;;;;;;;27.91;41.00;99592.97;5032835;28;20045;-78
2021/07/05 14:21:57;;;;;;;3.20;2.92;;;;;;;27.89;42.02;99589.69;5032546;28;20515;-79
2021/07/05 14:24:24;;;;;;;4.72;4.20;;;;;;;28.07;41.80;99592.59;5031642;28;20042;-78
2021/07/05 14:26:51;;;;;;;5.05;4.55;;;;;;;28.07;42.17;99575.66;5032834;28;20049;-78
2021/07/05 14:29:20;;;;;;;7.03;4.20;;;;;;;28.40;42.06;99565.78;5031667;28;20050;-78
2021/07/05 14:31:47;;;;;;;7.63;3.72;;;;;;;28.19;41.98;99577.53;5029484;28;20044;-78
2021/07/05 14:34:14;;;;;;;4.40;3.25;;;;;;;27.92;42.27;99581.25;5028461;28;20128;-78
2021/07/05 14:36:40;;;;;;;3.53;3.22;;;;;;;27.96;41.84;99577.09;5030408;28;20056;-78
2021/07/05 14:39:07;;;;;;;5.25;3.70;;;;;;;27.96;42.03;99574.44;5028775;28;20120;-78
2021/07/05 14:41:34;;;;;;;6.85;2.92;;;;;;;28.24;41.16;99570.72;5031183;28;20099;-80
2021/07/05 14:44:01;;;;;;;4.10;2.50;;;;;;;28.13;41.35;99569.50;5030957;28;20121;-81
2021/07/05 14:46:28;;;;;;;23.90;4.80;;;;;;;28.33;39.90;99564.13;5032128;28;20043;-80
2021/07/05 14:48:55;;;;;;;2.92;2.72;;;;;;;28.36;39.21;99558.38;5030610;28;20060;-81
2021/07/05 14:51:22;;;;;;;3.03;2.72;;;;;;;28.40;39.52;99565.78;5028890;28;20037;-80
2021/07/05 14:53:49;;;;;;;9.85;2.80;;;;;;;28.49;39.32;99563.69;5029154;28;20124;-80
2021/07/05 14:56:16;;;;;;;8.13;3.30;;;;;;;28.57;39.16;99568.84;5029162;28;20051;-78
2021/07/05 14:58:44;;;;;;;6.13;3.22;;;;;;;28.45;39.31;99568.66;5030175;28;20124;-82
2021/07/05 15:01:11;;;;;;;11.75;3.40;;;;;;;28.45;38.96;99574.03;5028789;28;20491;-80
2021/07/05 15:03:38;;;;;;;3.28;2.97;;;;;;;28.50;39.16;99564.50;5029794;28;20072;-80
2021/07/05 15:06:05;;;;;;;5.00;2.70;;;;;;;28.48;39.69;99563.91;5031914;28;20133;-80
2021/07/05 15:08:32;;;;;;;6.63;3.22;;;;;;;28.50;37.26;99559.16;5030554;28;20103;-81
2021/07/05 15:10:59;;;;;;;4.30;2.20;;;;;;;28.50;37.82;99553.78;5032343;28;20116;-80
2021/07/05 15:13:29;;;;;;;5.15;2.72;;;;;;;28.63;38.14;99557.28;5030844;28;20121;-80
2021/07/05 15:15:57;;;;;;;4.15;2.88;;;;;;;28.84;38.00;99555.34;5031085;28;20099;-82
2021/07/05 15:18:24;;;;;;;2.95;2.45;;;;;;;28.69;38.17;99552.91;5030586;28;20048;-81
2021/07/05 15:20:51;;;;;;;6.43;2.33;;;;;;;28.59;37.91;99553.34;5030415;28;20128;-82
2021/07/05 15:23:18;;;;;;;29.67;5.38;;;;;;;28.66;36.73;99558.72;5030808;28;20395;-82
2021/07/05 15:25:45;;;;;;;4.20;2.45;;;;;;;28.61;37.43;99556.66;5030563;28;20053;-81
2021/07/05 15:28:12;;;;;;;4.93;2.35;;;;;;;28.74;37.04;99549.63;5034433;28;20132;-82
2021/07/05 15:30:41;;;;;;;2.88;2.65;;;;;;;29.08;36.65;99557.34;5035526;28;20101;-81
2021/07/05 15:33:08;;;;;;;13.65;2.83;;;;;;;29.02;36.89;99552.00;5036180;28;20124;-81
2021/07/05 15:35:35;;;;;;;5.40;2.50;;;;;;;29.02;36.61;99552.81;5034826;28;20056;-82
2021/07/05 15:38:02;;;;;;;8.25;3.30;;;;;;;28.71;37.28;99554.38;5035848;28;20835;-82
2021/07/05 15:40:30;;;;;;;8.02;2.53;;;;;;;28.87;37.16;99560.28;5035252;28;20045;-83
2021/07/05 15:42:57;;;;;;;33.17;5.65;;;;;;;29.04;36.54;99549.94;5034873;28;20069;-82
2021/07/05 15:45:25;;;;;;;32.85;5.00;;;;;;;29.01;36.26;99556.56;5035056;28;20100;-78
2021/07/05 15:47:52;;;;;;;5.72;2.80;;;;;;;28.84;35.91;99550.00;5035512;28;20041;-79
2021/07/05 15:50:20;;;;;;;3.92;2.15;;;;;;;28.89;35.44;99544.81;5035535;28;20049;-80
2021/07/05 15:52:48;;;;;;;4.35;2.42;;;;;;;28.95;35.39;99547.50;5035465;28;20041;-78
2021/07/05 15:55:21;;;;;;;10.20;3.28;;;;;;;29.00;35.33;99548.72;5034495;28;20133;-80
2021/07/05 15:57:48;;;;;;;3.00;2.10;;;;;;;28.77;35.67;99544.66;5034281;28;20042;-79
2021/07/05 16:00:16;;;;;;;3.83;2.40;;;;;;;28.88;35.58;99544.00;5033646;28;20120;-79
2021/07/05 16:02:44;;;;;;;3.45;2.53;;;;;;;28.94;36.07;99535.13;5033403;28;20041;-87
2021/07/05 16:05:13;;;;;;;5.57;2.13;;;;;;;28.92;36.32;99539.00;5035204;28;20052;-81
2021/07/05 16:07:41;;;;;;;2.55;2.30;;;;;;;29.02;37.24;99536.72;5034994;28;20054;-80
2021/07/05 16:10:08;;;;;;;7.00;2.10;;;;;;;28.93;36.69;99538.00;5034964;28;20048;-82
2021/07/05 16:12:36;;;;;;;3.15;2.20;;;;;;;28.81;36.09;99537.00;5035028;28;20049;-81
2021/07/05 16:15:05;;;;;;;2.70;2.50;;;;;;;28.88;36.02;99540.50;5035080;28;20492;-81
2021/07/05 16:17:32;;;;;;;2.58;2.38;;;;;;;29.11;35.47;99534.63;5034970;28;20033;-81
2021/07/05 16:19:59;;;;;;;3.40;2.30;;;;;;;28.93;35.69;99536.16;5034040;28;20483;-89
2021/07/05 16:22:26;;;;;;;3.53;2.03;;;;;;;28.98;35.65;99535.53;5035539;28;20376;-81
2021/07/05 16:24:53;;;;;;;3.08;2.50;;;;;;;28.81;42.71;99540.50;5035190;28;20049;-79
2021/07/05 16:27:20;;;;;;;6.25;2.78;;;;;;;27.61;44.74;99542.44;5034644;28;20119;-75
2021/07/05 16:29:48;;;;;;;3.55;2.47;;;;;;;27.24;45.71;99537.66;5034686;28;20087;-75
2021/07/05 16:32:15;;;;;;;4.45;2.60;;;;;;;27.02;45.19;99534.25;5034907;28;20076;-73
2021/07/05 16:34:42;;;;;;;6.22;3.35;;;;;;;26.88;45.45;99536.88;5034682;28;20041;-73
2021/07/05 19:15:09;;;;;;;3.75;2.72;;;;;;;26.92;47.97;99609.50;5704919;23;20516;-86
2021/07/05 19:17:36;;;;;;;7.85;4.03;;;;;;;26.93;48.10;99613.00;4917818;29;20049;-82
2021/07/05 19:20:05;;;;;;;4.68;3.38;;;;;;;26.93;48.03;99613.81;4918677;29;20043;-80
2021/07/05 19:22:32;;;;;;;5.20;2.85;;;;;;;26.91;48.22;99615.88;4934357;29;20558;-81
2021/07/05 19:24:59;;;;;;;6.97;2.75;;;;;;;26.89;48.29;99621.41;4935272;29;20481;-81
2021/07/05 19:27:27;;;;;;;5.65;2.92;;;;;;;26.92;48.44;99630.91;4934408;29;20052;-82
2021/07/05 19:29:54;;;;;;;3.95;2.83;;;;;;;26.89;48.22;99632.09;4927900;29;20032;-81
2021/07/05 19:32:21;;;;;;;3.63;2.83;;;;;;;26.92;48.67;99638.91;4913391;29;20048;-81
2021/07/05 19:34:48;;;;;;;2.88;2.65;;;;;;;26.92;48.60;99646.13;4915196;29;20040;-80
2021/07/05 19:37:15;;;;;;;7.03;2.83;;;;;;;26.93;48.47;99650.44;4914441;29;20044;-84
2021/07/05 19:39:42;;;;;;;7.30;3.00;;;;;;;26.92;48.81;99656.81;4914959;29;20036;-84
2021/07/05 19:42:09;;;;;;;3.22;2.58;;;;;;;26.92;48.74;99657.66;4914654;29;20063;-73
2021/07/05 19:44:37;;;;;;;4.07;2.97;;;;;;;26.86;47.61;99658.44;4915127;29;20051;-74
2021/07/05 19:47:04;;;;;;;2.97;2.70;;;;;;;26.79;47.22;99657.53;4914306;29;20064;-74
2021/07/05 19:49:31;;;;;;;4.90;2.30;;;;;;;26.78;46.87;99655.91;4912324;29;20048;-75
2021/07/05 19:51:58;;;;;;;2.83;2.45;;;;;;;26.70;46.58;99670.25;4911326;29;20076;-74
2021/07/05 19:54:24;;;;;;;3.58;2.92;;;;;;;26.63;46.82;99667.53;4912300;29;20036;-75
2021/07/05 19:56:51;;;;;;;5.40;3.20;;;;;;;26.63;46.87;99672.03;4913031;29;20044;-75
2021/07/05 19:59:18;;;;;;;2.40;2.20;;;;;;;26.57;47.04;99678.16;4911279;29;20083;-74
2021/07/05 20:01:45;;;;;;;2.75;2.42;;;;;;;26.48;46.93;99661.47;4912898;29;20490;-75
2021/07/05 20:04:13;;;;;;;5.25;2.63;;;;;;;26.37;47.26;99668.13;4914416;29;20071;-75
2021/07/05 20:06:39;;;;;;;2.50;2.30;;;;;;;26.39;47.22;99670.59;4915504;29;20144;-75
2021/07/05 20:09:06;;;;;;;3.17;2.05;;;;;;;26.32;47.09;99675.91;4915518;29;20050;-75
2021/07/05 20:11:34;;;;;;;2.33;1.95;;;;;;;26.30;47.06;99677.91;4915337;29;20052;-74
2021/07/05 20:14:01;;;;;;;3.15;2.33;;;;;;;26.20;47.31;99679.25;4918212;29;20399;-74
2021/07/05 20:16:28;;;;;;;5.22;2.08;;;;;;;26.27;47.01;99680.16;4902059;29;20049;-75
2021/07/05 20:18:55;;;;;;;5.25;2.28;;;;;;;26.26;46.94;99678.47;4900079;29;20444;-74
2021/07/05 20:21:21;;;;;;;5.15;2.45;;;;;;;26.23;47.02;99682.38;4899613;29;20135;-75
2021/07/05 20:23:49;;;;;;;4.00;2.78;;;;;;;26.24;46.76;99675.19;4898766;29;20036;-74
2021/07/05 20:26:16;;;;;;;2.72;2.33;;;;;;;26.15;47.08;99674.47;4899901;29;20053;-75
2021/07/05 20:28:43;;;;;;;3.72;2.28;;;;;;;26.22;46.71;99685.25;4899927;29;20051;-75
2021/07/05 20:31:10;;;;;;;9.13;2.92;;;;;;;26.26;46.52;99683.81;4899882;29;20087;-74
2021/07/05 20:33:39;;;;;;;5.50;2.63;;;;;;;26.18;46.66;99681.31;4899540;29;20047;-74
2021/07/05 20:36:07;;;;;;;4.15;2.13;;;;;;;26.20;46.42;99688.09;4899618;29;20045;-75
2021/07/05 20:38:34;;;;;;;6.47;2.25;;;;;;;26.25;46.41;99684.84;4899244;29;20526;-74
2021/07/05 20:41:01;;;;;;;2.47;2.00;;;;;;;26.18;46.51;99687.47;4899671;29;20097;-74
2021/07/05 20:43:28;;;;;;;5.07;2.08;;;;;;;26.12;46.47;99688.25;4899259;29;20045;-74
2021/07/05 20:45:57;;;;;;;3.30;2.03;;;;;;;26.15;46.21;99687.84;4899432;29;20053;-74
2021/07/05 20:48:24;;;;;;;2.90;1.80;;;;;;;26.15;46.34;99689.69;4899137;29;20040;-74
2021/07/05 20:50:52;;;;;;;4.75;1.88;;;;;;;26.11;46.45;99692.75;4899586;29;20045;-74
2021/07/05 20:53:20;;;;;;;3.42;2.08;;;;;;;26.06;46.63;99697.00;4899049;29;20041;-74
2021/07/05 20:55:48;;;;;;;4.70;2.20;;;;;;;26.07;46.62;99704.81;4899421;29;20048;-73
2021/07/05 20:58:20;;;;;;;3.35;2.30;;;;;;;26.05;46.58;99709.53;4899747;29;20049;-75
2021/07/05 21:00:48;;;;;;;3.33;1.90;;;;;;;25.97;46.72;99706.97;4898806;29;20202;-75
2021/07/05 21:03:16;;;;;;;3.47;1.85;;;;;;;26.02;46.65;99707.25;4899049;29;20089;-74
2021/07/05 21:05:45;;;;;;;6.97;1.90;;;;;;;26.08;46.51;99711.00;4898854;29;20053;-75
2021/07/05 21:08:13;;;;;;;5.78;1.67;;;;;;;26.04;46.53;99707.03;4898549;29;20499;-83
2021/07/05 21:10:40;;;;;;;7.45;1.85;;;;;;;26.10;46.74;99709.81;4895907;29;20116;-77
2021/07/05 21:13:07;;;;;;;64.20;6.20;;;;;;;25.48;48.86;99712.13;4900031;29;20047;-90
2021/07/05 21:15:35;;;;;;;2.25;1.50;;;;;;;24.56;50.23;99721.22;4893309;29;20045;-90
2021/07/05 21:18:03;;;;;;;4.22;2.08;;;;;;;24.20;51.15;99717.47;4889444;29;20045;-92
2021/07/05 21:20:30;;;;;;;11.73;2.28;;;;;;;24.05;51.35;99717.41;4892133;29;20052;-93
2021/07/05 21:22:59;;;;;;;10.38;2.50;;;;;;;23.95;52.54;99714.97;4896126;29;20073;-91
2021/07/05 21:25:26;;;;;;;9.07;1.77;;;;;;;24.05;52.49;99712.91;4896198;29;20468;-92
2021/07/05 21:27:53;;;;;;;9.60;2.00;;;;;;;23.89;52.82;99713.00;4897636;29;20055;-89
2021/07/05 21:30:20;;;;;;;10.52;2.55;;;;;;;23.92;52.45;99712.69;4907547;29;20045;-93
2021/07/05 21:32:48;;;;;;;4.40;1.85;;;;;;;23.89;52.40;99707.69;4898928;29;20482;-91